createdAt,value
2022-08-11T00:00:02.589Z,93.70
2022-08-11T00:02:34.867Z,93.80
2022-08-11T00:05:06.247Z,93.80
2022-08-11T00:07:34.507Z,93.90
2022-08-11T00:10:02.417Z,93.90
2022-08-11T00:12:30.029Z,94.00
2022-08-11T00:15:01.936Z,94.10
2022-08-11T00:17:32.766Z,94.00
2022-08-11T00:20:16.206Z,94.20
2022-08-11T00:22:46.277Z,94.20
2022-08-11T00:25:19.197Z,94.30
2022-08-11T00:27:47.581Z,94.40
2022-08-11T00:30:17.809Z,94.40
2022-08-11T00:32:54.764Z,94.50
2022-08-11T00:35:54.808Z,94.70
2022-08-11T00:38:16.292Z,94.60
2022-08-11T00:40:51.796Z,94.60
2022-08-11T00:43:55.850Z,94.60
2022-08-11T00:46:25.372Z,94.40
2022-08-11T00:49:25.971Z,94.70
2022-08-11T00:52:30.611Z,94.40
2022-08-11T00:55:23.392Z,94.40
2022-08-11T00:58:23.602Z,94.60
2022-08-11T01:01:08.086Z,94.70
2022-08-11T01:04:21.340Z,94.80
2022-08-11T01:08:01.905Z,94.90
2022-08-11T01:10:30.649Z,94.90
2022-08-11T01:13:16.868Z,94.90
2022-08-11T01:16:05.503Z,95.10
2022-08-11T01:19:02.787Z,95.00
2022-08-11T01:22:04.497Z,95.00
2022-08-11T01:24:51.943Z,95.10
2022-08-11T01:27:37.223Z,95.30
2022-08-11T01:30:19.440Z,95.40
2022-08-11T01:33:25.771Z,95.40
2022-08-11T01:36:16.559Z,95.60
2022-08-11T01:38:57.658Z,95.70
2022-08-11T01:42:05.659Z,95.70
2022-08-11T01:44:45.420Z,95.80
2022-08-11T01:47:54.373Z,95.90
2022-08-11T01:50:44.409Z,95.90
2022-08-11T01:53:35.740Z,95.90
2022-08-11T01:56:23.327Z,95.90
2022-08-11T01:59:09.534Z,95.90
2022-08-11T02:01:50.951Z,96.00
2022-08-11T02:05:05.057Z,96.00
2022-08-11T02:08:11.631Z,95.90
2022-08-11T02:11:15.893Z,95.80
2022-08-11T02:13:49.604Z,95.90
2022-08-11T02:16:55.645Z,96.00
2022-08-11T02:19:59.228Z,96.10
2022-08-11T02:23:01.077Z,96.10
2022-08-11T02:25:51.861Z,96.20
2022-08-11T02:28:52.555Z,96.20
2022-08-11T02:32:24.981Z,96.20
2022-08-11T02:34:59.619Z,96.30
2022-08-11T02:37:33.091Z,96.40
2022-08-11T02:40:02.537Z,96.60
2022-08-11T02:42:51.611Z,96.70
2022-08-11T02:45:30.113Z,96.80
2022-08-11T02:48:39.449Z,97.00
2022-08-11T02:51:33.574Z,97.10
2022-08-11T02:54:21.253Z,97.20
2022-08-11T02:57:12.424Z,97.20
2022-08-11T03:00:00.751Z,97.30
2022-08-11T03:02:51.054Z,97.30
2022-08-11T03:05:33.616Z,97.30
2022-08-11T03:08:30.168Z,97.30
2022-08-11T03:11:37.835Z,97.40
2022-08-11T03:14:26.619Z,97.40
2022-08-11T03:17:09.148Z,97.50
2022-08-11T03:20:03.808Z,97.50
2022-08-11T03:22:38.890Z,97.60
2022-08-11T03:25:20.281Z,97.60
2022-08-11T03:27:50.040Z,97.70
2022-08-11T03:30:34.800Z,97.70
2022-08-11T03:33:50.524Z,97.70
2022-08-11T03:37:16.571Z,97.60
2022-08-11T03:39:56.455Z,97.60
2022-08-11T03:42:41.241Z,97.60
2022-08-11T03:45:37.433Z,97.60
2022-08-11T03:48:25.066Z,97.50
2022-08-11T03:51:15.285Z,97.40
2022-08-11T03:54:00.670Z,97.40
2022-08-11T03:57:04.297Z,97.30
2022-08-11T03:59:51.006Z,97.30
2022-08-11T04:02:55.156Z,97.30
2022-08-11T04:06:13.182Z,97.40
2022-08-11T04:09:07.699Z,97.40
2022-08-11T04:11:54.880Z,97.40
2022-08-11T04:14:52.239Z,97.50
2022-08-11T04:17:40.659Z,97.60
2022-08-11T04:20:10.215Z,97.70
2022-08-11T04:22:55.505Z,97.80
2022-08-11T04:25:33.523Z,97.80
2022-08-11T04:28:50.101Z,97.90
2022-08-11T04:31:49.562Z,97.90
2022-08-11T04:34:45.591Z,98.00
2022-08-11T04:37:34.443Z,98.00
2022-08-11T04:40:29.228Z,98.10
2022-08-11T04:43:23.163Z,98.10
2022-08-11T04:46:20.722Z,98.00
2022-08-11T04:49:33.647Z,98.00
2022-08-11T04:53:01.037Z,97.90
2022-08-11T04:56:13.524Z,97.70
2022-08-11T04:59:28.604Z,97.60
2022-08-11T05:02:40.078Z,97.60
2022-08-11T05:05:33.252Z,97.50
2022-08-11T05:08:50.214Z,97.60
2022-08-11T05:11:31.930Z,97.50
2022-08-11T05:14:32.322Z,97.50
2022-08-11T05:17:25.306Z,97.40
2022-08-11T05:20:10.847Z,97.30
2022-08-11T05:23:04.337Z,97.20
2022-08-11T05:26:43.960Z,97.10
2022-08-11T05:29:08.255Z,96.80
2022-08-11T05:32:14.503Z,96.70
2022-08-11T05:34:55.801Z,96.60
2022-08-11T05:37:38.522Z,96.60
2022-08-11T05:40:33.169Z,96.00
2022-08-11T05:43:30.439Z,95.00
2022-08-11T05:46:25.157Z,94.50
2022-08-11T05:49:13.011Z,94.30
2022-08-11T05:52:05.890Z,94.40
2022-08-11T05:54:59.916Z,94.20
2022-08-11T05:57:48.637Z,93.30
2022-08-11T06:00:19.393Z,92.90
2022-08-11T06:02:59.128Z,92.10
2022-08-11T06:05:37.357Z,91.70
2022-08-11T06:08:12.364Z,91.40
2022-08-11T06:10:42.415Z,91.10
2022-08-11T06:13:14.433Z,91.00
2022-08-11T06:15:49.214Z,90.70
2022-08-11T06:18:16.850Z,90.60
2022-08-11T06:20:57.948Z,90.10
2022-08-11T06:23:32.181Z,89.90
2022-08-11T06:26:00.054Z,89.10
2022-08-11T06:28:47.923Z,88.50
2022-08-11T06:31:20.004Z,88.00
2022-08-11T06:34:05.381Z,88.20
2022-08-11T06:36:58.991Z,88.00
2022-08-11T06:39:52.926Z,87.50
2022-08-11T06:42:48.159Z,87.20
2022-08-11T06:45:42.087Z,86.40
2022-08-11T06:48:16.979Z,86.40
2022-08-11T06:51:08.979Z,85.70
2022-08-11T06:53:39.092Z,85.90
2022-08-11T06:56:26.109Z,84.20
2022-08-11T06:59:12.530Z,84.60
2022-08-11T07:01:49.337Z,84.70
2022-08-11T07:04:40.158Z,85.10
2022-08-11T07:07:53.384Z,83.70
2022-08-11T07:10:47.542Z,84.30
2022-08-11T07:13:39.338Z,84.20
2022-08-11T07:16:28.319Z,83.60
2022-08-11T07:19:21.669Z,82.70
2022-08-11T07:22:08.098Z,82.80
2022-08-11T07:25:04.900Z,83.10
2022-08-11T07:28:05.029Z,83.50
2022-08-11T07:30:34.437Z,83.80
2022-08-11T07:33:03.000Z,82.80
2022-08-11T07:35:42.436Z,83.80
2022-08-11T07:38:22.240Z,82.90
2022-08-11T07:40:50.857Z,82.70
2022-08-11T07:43:17.804Z,82.40
2022-08-11T07:46:05.003Z,81.80
2022-08-11T07:48:52.998Z,82.10
2022-08-11T07:51:41.645Z,81.80
2022-08-11T07:54:17.204Z,84.20
2022-08-11T07:56:55.024Z,82.80
2022-08-11T08:00:00.208Z,82.80
2022-08-11T08:02:50.104Z,83.10
2022-08-11T08:05:37.151Z,82.40
2022-08-11T08:08:23.861Z,82.80
2022-08-11T08:11:16.357Z,82.70
2022-08-11T08:14:08.322Z,82.50
2022-08-11T08:16:56.426Z,81.80
2022-08-11T08:19:23.620Z,82.30
2022-08-11T08:21:51.122Z,82.10
2022-08-11T08:24:20.166Z,81.10
2022-08-11T08:26:58.510Z,80.30
2022-08-11T08:30:04.066Z,80.40
2022-08-11T08:32:32.582Z,80.40
2022-08-11T08:35:00.553Z,80.30
2022-08-11T08:37:46.722Z,80.20
2022-08-11T08:40:14.730Z,80.40
2022-08-11T08:43:03.773Z,80.70
2022-08-11T08:45:34.747Z,80.20
2022-08-11T08:48:11.033Z,79.90
2022-08-11T08:51:19.543Z,79.00
2022-08-11T08:53:56.342Z,79.60
2022-08-11T08:56:28.220Z,80.10
2022-08-11T08:58:58.788Z,80.50
2022-08-11T09:01:30.870Z,80.90
2022-08-11T09:04:07.109Z,83.60
2022-08-11T09:06:40.299Z,81.60
2022-08-11T09:09:08.916Z,81.70
2022-08-11T09:11:55.829Z,81.10
2022-08-11T09:15:03.640Z,80.20
2022-08-11T09:17:46.558Z,80.90
2022-08-11T09:20:29.310Z,80.60
2022-08-11T09:26:31.006Z,81.00
2022-08-11T09:29:02.216Z,80.00
2022-08-11T09:31:38.684Z,79.00
2022-08-11T09:34:11.314Z,79.40
2022-08-11T09:36:59.722Z,79.60
2022-08-11T09:39:49.920Z,78.90
2022-08-11T09:42:23.378Z,80.50
2022-08-11T09:44:53.197Z,80.70
2022-08-11T09:47:29.567Z,79.90
2022-08-11T09:50:01.555Z,80.60
2022-08-11T09:52:35.733Z,80.00
2022-08-11T09:55:06.293Z,79.70
2022-08-11T09:57:52.377Z,79.20
2022-08-11T10:00:20.813Z,78.40
2022-08-11T10:02:50.325Z,78.80
2022-08-11T10:05:38.259Z,78.00
2022-08-11T10:08:07.305Z,77.10
2022-08-11T10:10:41.238Z,78.10
2022-08-11T10:14:31.296Z,77.10
2022-08-11T10:16:14.596Z,76.80
2022-08-11T10:18:53.737Z,76.20
2022-08-11T10:22:12.467Z,75.20
2022-08-11T10:24:59.940Z,75.20
2022-08-11T10:28:17.729Z,76.30
2022-08-11T10:30:46.731Z,75.50
2022-08-11T10:33:41.730Z,76.40
2022-08-11T10:36:16.423Z,75.60
2022-08-11T10:38:45.839Z,74.80
2022-08-11T10:41:32.501Z,74.80
2022-08-11T10:44:03.048Z,75.00
2022-08-11T10:46:50.342Z,75.60
2022-08-11T10:49:18.819Z,76.60
2022-08-11T10:52:05.337Z,75.40
2022-08-11T10:54:52.832Z,75.40
2022-08-11T10:57:38.983Z,75.20
2022-08-11T11:00:07.239Z,75.90
2022-08-11T11:02:34.859Z,76.00
2022-08-11T11:05:12.865Z,74.80
2022-08-11T11:08:26.971Z,73.80
2022-08-11T11:10:54.286Z,73.30
2022-08-11T11:13:55.121Z,72.60
2022-08-11T11:16:44.469Z,72.30
2022-08-11T11:19:13.039Z,72.20
2022-08-11T11:21:43.044Z,72.00
2022-08-11T11:24:27.238Z,72.60
2022-08-11T11:27:12.261Z,72.10
2022-08-11T11:29:58.907Z,72.70
2022-08-11T11:32:49.997Z,74.10
2022-08-11T11:35:26.561Z,73.50
2022-08-11T11:38:04.792Z,73.20
2022-08-11T11:40:39.788Z,72.80
2022-08-11T11:43:09.585Z,71.90
2022-08-11T11:45:36.815Z,71.40
2022-08-11T11:48:04.169Z,72.20
2022-08-11T11:50:37.443Z,72.10
2022-08-11T11:53:06.756Z,70.80
2022-08-11T11:55:34.133Z,70.60
2022-08-11T11:58:22.270Z,71.10
2022-08-11T12:01:09.321Z,71.20
2022-08-11T12:03:37.869Z,71.20
2022-08-11T12:06:14.186Z,72.90
2022-08-11T12:08:42.745Z,72.00
2022-08-11T12:11:30.857Z,70.60
2022-08-11T12:14:03.077Z,69.80
2022-08-11T12:16:36.568Z,70.80
2022-08-11T12:19:13.505Z,71.00
2022-08-11T12:22:01.021Z,72.10
2022-08-11T12:24:57.997Z,73.20
2022-08-11T12:27:30.776Z,71.40
2022-08-11T12:30:12.395Z,71.20
2022-08-11T12:32:41.357Z,71.10
2022-08-11T12:35:08.764Z,70.60
2022-08-11T12:37:51.944Z,70.40
2022-08-11T12:41:11.954Z,72.40
2022-08-11T12:43:56.320Z,71.60
2022-08-11T12:46:29.059Z,71.80
2022-08-11T12:49:17.568Z,70.50
2022-08-11T12:52:14.751Z,70.30
2022-08-11T12:54:49.842Z,69.80
2022-08-11T12:57:42.766Z,69.70
2022-08-11T13:00:30.040Z,69.20
2022-08-11T13:03:15.947Z,68.20
2022-08-11T13:05:45.146Z,66.90
2022-08-11T13:08:15.054Z,69.50
2022-08-11T13:11:02.364Z,69.50
2022-08-11T13:13:54.496Z,69.20
2022-08-11T13:16:17.791Z,67.10
2022-08-11T13:18:45.102Z,67.40
2022-08-11T13:21:20.671Z,67.40
2022-08-11T13:23:59.736Z,67.40
2022-08-11T13:26:47.426Z,67.10
2022-08-11T13:29:26.516Z,67.80
2022-08-11T13:31:56.150Z,66.80
2022-08-11T13:34:26.675Z,66.20
2022-08-11T13:37:00.261Z,65.50
2022-08-11T13:39:32.054Z,65.60
2022-08-11T13:42:01.468Z,65.10
2022-08-11T13:44:30.988Z,65.00
2022-08-11T13:47:06.543Z,65.90
2022-08-11T13:49:39.678Z,66.00
2022-08-11T13:52:12.982Z,66.30
2022-08-11T13:54:41.302Z,65.20
2022-08-11T13:57:13.781Z,66.40
2022-08-11T14:00:13.082Z,66.00
2022-08-11T14:02:56.427Z,66.60
2022-08-11T14:05:38.903Z,64.80
2022-08-11T14:08:37.568Z,63.80
2022-08-11T14:12:22.894Z,64.40
2022-08-11T14:14:18.581Z,63.00
2022-08-11T14:16:48.563Z,63.80
2022-08-11T14:19:18.457Z,62.70
2022-08-11T14:22:07.696Z,63.80
2022-08-11T14:24:38.612Z,64.60
2022-08-11T14:27:07.628Z,61.90
2022-08-11T14:29:54.440Z,61.20
2022-08-11T14:32:22.834Z,60.80
2022-08-11T14:34:53.778Z,60.00
2022-08-11T14:37:22.654Z,61.90
2022-08-11T14:40:02.846Z,59.90
2022-08-11T14:42:52.381Z,59.70
2022-08-11T14:45:57.711Z,59.40
2022-08-11T14:48:26.521Z,60.00
2022-08-11T14:50:53.483Z,62.40
2022-08-11T14:53:25.352Z,62.90
2022-08-11T14:56:14.126Z,62.60
2022-08-11T14:58:43.967Z,62.30
2022-08-11T15:01:31.051Z,61.60
2022-08-11T15:04:34.002Z,60.80
2022-08-11T15:06:51.524Z,59.80
2022-08-11T15:09:18.910Z,58.80
2022-08-11T15:12:07.430Z,57.00
2022-08-11T15:15:13.609Z,57.30
2022-08-11T15:17:43.707Z,57.80
2022-08-11T15:20:34.470Z,57.90
2022-08-11T15:23:20.802Z,58.70
2022-08-11T15:25:52.793Z,59.20
2022-08-11T15:28:40.417Z,59.60
2022-08-11T15:31:25.596Z,59.80
2022-08-11T15:34:20.880Z,59.70
2022-08-11T15:37:10.530Z,59.90
2022-08-11T15:40:32.828Z,60.50
2022-08-11T15:43:43.741Z,60.50
2022-08-11T15:46:30.673Z,60.60
2022-08-11T15:49:10.976Z,59.20
2022-08-11T15:51:57.680Z,59.70
2022-08-11T15:54:31.194Z,61.10
2022-08-11T15:57:01.796Z,62.10
2022-08-11T15:59:52.251Z,62.70
2022-08-11T16:02:41.976Z,62.30
2022-08-11T16:05:13.518Z,62.50
2022-08-11T16:07:49.088Z,62.50
2022-08-11T16:10:21.547Z,60.20
2022-08-11T16:13:22.354Z,60.60
2022-08-11T16:16:15.808Z,60.40
2022-08-11T16:18:56.440Z,61.10
2022-08-11T16:21:44.410Z,61.80
2022-08-11T16:27:02.411Z,64.00
2022-08-11T16:27:13.058Z,64.80
2022-08-11T16:29:44.912Z,66.00
2022-08-11T16:32:21.738Z,65.90
2022-08-11T16:35:13.593Z,66.40
2022-08-11T16:37:59.999Z,66.90
2022-08-11T16:40:28.942Z,67.30
2022-08-11T16:43:16.239Z,67.70
2022-08-11T16:46:02.178Z,68.00
2022-08-11T16:48:37.525Z,68.90
2022-08-11T16:51:11.306Z,68.50
2022-08-11T16:53:54.872Z,68.50
2022-08-11T16:56:43.342Z,68.20
2022-08-11T16:59:17.908Z,69.00
2022-08-11T17:01:55.789Z,68.50
2022-08-11T17:04:54.354Z,68.80
2022-08-11T17:07:50.170Z,68.90
2022-08-11T17:11:00.196Z,69.70
2022-08-11T17:14:03.099Z,70.20
2022-08-11T17:16:36.362Z,70.20
2022-08-11T17:19:14.410Z,70.80
2022-08-11T17:22:06.728Z,70.20
2022-08-11T17:24:37.155Z,70.20
2022-08-11T17:27:08.166Z,70.00
2022-08-11T17:29:53.557Z,71.00
2022-08-11T17:32:55.779Z,69.60
2022-08-11T17:35:32.654Z,69.70
2022-08-11T17:38:14.278Z,69.70
2022-08-11T17:41:06.287Z,69.90
2022-08-11T17:43:54.344Z,70.30
2022-08-11T17:46:40.006Z,71.00
2022-08-11T17:49:09.774Z,71.10
2022-08-11T17:51:57.029Z,71.70
2022-08-11T17:54:44.150Z,71.70
2022-08-11T17:57:33.610Z,72.30
2022-08-11T18:00:02.193Z,72.50
2022-08-11T18:02:57.083Z,71.80
2022-08-11T18:05:33.618Z,71.40
2022-08-11T18:08:25.450Z,71.60
2022-08-11T18:11:11.455Z,72.10
2022-08-11T18:14:04.028Z,72.40
2022-08-11T18:16:49.444Z,72.70
2022-08-11T18:19:34.874Z,73.00
2022-08-11T18:22:31.761Z,72.90
2022-08-11T18:25:35.330Z,73.00
2022-08-11T18:28:28.123Z,73.50
2022-08-11T18:31:18.472Z,74.40
2022-08-11T18:34:12.184Z,74.60
2022-08-11T18:37:21.839Z,74.70
2022-08-11T18:40:46.254Z,75.10
2022-08-11T18:43:35.471Z,75.60
2022-08-11T18:46:27.076Z,75.80
2022-08-11T18:49:26.607Z,76.40
2022-08-11T18:52:23.167Z,77.50
2022-08-11T18:55:10.458Z,77.50
2022-08-11T18:58:00.318Z,78.20
2022-08-11T19:00:46.689Z,78.80
2022-08-11T19:03:43.389Z,79.80
2022-08-11T19:06:36.018Z,80.70
2022-08-11T19:09:28.373Z,81.40
2022-08-11T19:12:15.167Z,81.80
2022-08-11T19:15:01.579Z,82.20
2022-08-11T19:17:50.084Z,82.40
2022-08-11T19:20:38.387Z,83.50
2022-08-11T19:23:27.305Z,83.90
2022-08-11T19:26:13.415Z,84.20
2022-08-11T19:29:00.940Z,84.90
2022-08-11T19:31:50.327Z,86.00
2022-08-11T19:34:38.273Z,87.10
2022-08-11T19:37:26.845Z,87.70
2022-08-11T19:40:15.587Z,88.10
2022-08-11T19:43:03.164Z,88.80
2022-08-11T19:45:52.472Z,89.50
2022-08-11T19:48:48.310Z,90.00
2022-08-11T19:51:34.418Z,90.00
2022-08-11T19:54:22.941Z,90.10
2022-08-11T19:57:09.835Z,90.20
2022-08-11T19:59:56.624Z,90.20
2022-08-11T20:02:42.044Z,90.20
2022-08-11T20:05:28.144Z,88.30
2022-08-11T20:08:15.680Z,87.30
2022-08-11T20:11:06.889Z,86.80
2022-08-11T20:13:53.815Z,85.30
2022-08-11T20:16:43.849Z,84.80
2022-08-11T20:19:55.059Z,84.40
2022-08-11T20:22:40.919Z,84.40
2022-08-11T20:25:27.483Z,84.70
2022-08-11T20:28:13.746Z,84.50
2022-08-11T20:31:02.293Z,84.10
2022-08-11T20:33:49.281Z,84.00
2022-08-11T20:36:35.767Z,83.90
2022-08-11T20:39:22.230Z,84.00
2022-08-11T20:42:08.674Z,83.90
2022-08-11T20:44:58.218Z,83.80
2022-08-11T20:47:56.393Z,83.80
2022-08-11T20:50:45.817Z,83.50
2022-08-11T20:53:35.965Z,83.30
2022-08-11T20:59:49.579Z,83.80
2022-08-11T21:02:40.669Z,84.00
2022-08-11T21:06:08.482Z,84.20
2022-08-11T21:08:36.563Z,84.40
2022-08-11T21:11:27.569Z,84.70
2022-08-11T21:14:15.427Z,84.80
2022-08-11T21:17:25.982Z,85.20
2022-08-11T21:20:20.355Z,85.40
2022-08-11T21:23:23.747Z,85.30
2022-08-11T21:26:29.785Z,85.40
2022-08-11T21:29:18.203Z,85.40
2022-08-11T21:32:04.693Z,85.60
2022-08-11T21:34:51.206Z,85.70
2022-08-11T21:37:37.700Z,85.80
2022-08-11T21:40:26.188Z,86.00
2022-08-11T21:43:13.972Z,86.10
2022-08-11T21:46:01.603Z,86.90
2022-08-11T21:48:49.366Z,87.00
2022-08-11T21:51:37.961Z,86.50
2022-08-11T21:54:36.354Z,86.50
2022-08-11T21:57:23.037Z,86.90
2022-08-11T22:00:13.943Z,87.10
2022-08-11T22:03:02.023Z,87.20
2022-08-11T22:05:50.978Z,87.40
2022-08-11T22:08:36.915Z,87.70
2022-08-11T22:11:31.690Z,88.10
2022-08-11T22:14:25.011Z,88.00
2022-08-11T22:17:10.532Z,87.80
2022-08-11T22:20:00.888Z,87.70
2022-08-11T22:22:52.923Z,87.80
2022-08-11T22:25:51.008Z,88.10
2022-08-11T22:28:37.964Z,88.50
2022-08-11T22:31:25.587Z,88.70
2022-08-11T22:34:10.750Z,89.10
2022-08-11T22:36:57.437Z,89.40
2022-08-11T22:39:44.832Z,89.80
2022-08-11T22:42:46.193Z,90.00
2022-08-11T22:45:31.966Z,90.10
2022-08-11T22:48:18.805Z,90.20
2022-08-11T22:51:04.853Z,90.20
2022-08-11T22:53:57.729Z,90.00
2022-08-11T22:56:45.522Z,90.10
2022-08-11T22:59:35.837Z,90.00
2022-08-11T23:02:25.425Z,90.20
2022-08-11T23:05:11.527Z,90.20
2022-08-11T23:07:58.238Z,90.10
2022-08-11T23:10:44.710Z,90.30
2022-08-11T23:13:30.336Z,90.20
2022-08-11T23:16:19.557Z,90.30
2022-08-11T23:19:05.418Z,90.40
2022-08-11T23:21:54.834Z,90.40
2022-08-11T23:24:42.108Z,90.60
2022-08-11T23:27:30.869Z,90.80
2022-08-11T23:30:19.041Z,90.80
2022-08-11T23:33:09.630Z,90.70
2022-08-11T23:36:03.303Z,91.10
2022-08-11T23:38:51.240Z,90.80
2022-08-11T23:41:37.058Z,90.80
2022-08-11T23:44:23.581Z,90.90
2022-08-11T23:47:11.961Z,90.90
2022-08-11T23:49:57.498Z,91.00
2022-08-11T23:52:45.910Z,91.30
2022-08-11T23:55:34.746Z,91.30
2022-08-11T23:58:20.508Z,91.30
